Time;durP1;ratioP1;P1;durP2;ratioP2;P2;SDS_P1;SDS_P2;PMS_P1;PMS_P2;Temp;Humidity;BMP_temperature;BMP_pressure;BME280_temperature;BME280_humidity;BME280_pressure;Samples;Min_cycle;Max_cycle;Signal;HPM_P1;HPM_P2
2023/07/20 00:00:27;;;;;;;4.10;2.30;;;;;;;22.86;86.84;100140.89;105659;1266;62063;-89
2023/07/20 00:03:19;;;;;;;6.90;3.00;;;;;;;22.90;87.11;100132.91;105296;1267;62116;-88
2023/07/20 00:06:07;;;;;;;5.10;2.50;;;;;;;22.93;87.09;100131.38;105317;1268;75920;-87
2023/07/20 00:08:56;;;;;;;5.20;2.10;;;;;;;23.01;86.58;100132.44;105506;1270;68574;-88
2023/07/20 00:11:51;;;;;;;4.10;2.40;;;;;;;23.06;85.98;100132.36;105393;1267;74548;-88
2023/07/20 00:14:38;;;;;;;4.50;2.30;;;;;;;23.01;85.93;100129.06;105366;1267;62044;-88
2023/07/20 00:17:26;;;;;;;3.40;2.20;;;;;;;22.98;86.02;100126.79;105533;1267;62090;-88
2023/07/20 00:20:15;;;;;;;6.00;2.80;;;;;;;22.95;86.16;100120.74;105299;1268;76394;-90
2023/07/20 00:23:04;;;;;;;6.40;2.50;;;;;;;22.94;85.78;100119.94;105231;1268;69633;-88
2023/07/20 00:25:52;;;;;;;6.50;2.80;;;;;;;22.91;85.82;100130.31;105390;1268;73778;-89
2023/07/20 00:28:41;;;;;;;5.00;2.20;;;;;;;22.87;86.09;100141.77;105435;1270;62088;-88
2023/07/20 00:31:29;;;;;;;4.50;2.20;;;;;;;22.85;85.90;100142.93;105371;1266;62162;-90
2023/07/20 00:34:17;;;;;;;4.20;2.40;;;;;;;22.79;85.78;100142.81;105423;1267;75808;-89
2023/07/20 00:37:06;;;;;;;5.30;2.60;;;;;;;22.71;85.87;100139.81;105490;1268;69682;-89
2023/07/20 00:39:54;;;;;;;7.10;2.40;;;;;;;22.55;86.71;100132.83;105194;1267;73640;-88
2023/07/20 00:42:45;;;;;;;2.50;2.00;;;;;;;22.52;87.17;100138.10;105456;1267;62183;-91
2023/07/20 00:45:33;;;;;;;3.40;2.40;;;;;;;22.51;87.42;100145.08;105500;1267;61934;-89
2023/07/20 00:48:23;;;;;;;4.60;2.60;;;;;;;22.48;88.01;100147.48;105387;1267;74979;-89
2023/07/20 00:51:12;;;;;;;6.00;2.20;;;;;;;22.51;87.79;100146.81;105569;1267;69780;-89
2023/07/20 00:54:00;;;;;;;3.00;2.10;;;;;;;22.46;87.65;100141.87;105702;1267;72603;-89
2023/07/20 00:56:49;;;;;;;5.40;2.70;;;;;;;22.36;87.97;100139.06;105573;1265;63264;-88
2023/07/20 00:59:37;;;;;;;4.20;2.20;;;;;;;22.31;88.27;100138.56;105500;1266;62155;-89
2023/07/20 01:02:25;;;;;;;5.40;2.50;;;;;;;22.25;88.40;100140.74;105472;1268;73261;-88
2023/07/20 01:05:16;;;;;;;3.40;2.10;;;;;;;22.17;89.51;100141.73;105652;1267;68594;-87
2023/07/20 01:08:13;;;;;;;5.30;2.80;;;;;;;22.15;90.24;100144.24;105399;1268;73690;-89
2023/07/20 01:11:13;;;;;;;6.50;2.50;;;;;;;22.21;90.33;100147.55;105746;1268;62113;-89
2023/07/20 01:14:01;;;;;;;6.90;2.40;;;;;;;22.20;91.29;100142.29;105155;1268;62065;-88
2023/07/20 01:16:52;;;;;;;4.00;2.50;;;;;;;22.20;91.68;100137.13;105326;1267;75445;-88
2023/07/20 01:19:40;;;;;;;6.00;2.40;;;;;;;22.22;91.77;100138.92;105359;1267;69673;-88
2023/07/20 01:22:58;;;;;;;8.00;2.10;;;;;;;22.25;91.43;100141.77;105557;1268;73660;-88
2023/07/20 01:26:09;;;;;;;6.80;2.50;;;;;;;22.25;90.61;100150.74;105592;1269;62072;-90
2023/07/20 01:29:23;;;;;;;6.10;2.60;;;;;;;22.24;90.08;100155.75;105560;1267;62085;-88
2023/07/20 01:32:12;;;;;;;4.00;2.40;;;;;;;22.20;90.10;100154.13;105320;1270;76519;-88
2023/07/20 01:35:00;;;;;;;6.00;2.70;;;;;;;22.13;90.40;100147.45;105475;1269;68761;-88
2023/07/20 01:37:48;;;;;;;4.40;3.10;;;;;;;22.08;90.69;100141.80;105668;1271;73641;-89
2023/07/20 01:40:36;;;;;;;5.00;3.20;;;;;;;22.12;90.51;100142.58;105331;1266;62061;-89
2023/07/20 01:43:26;;;;;;;4.20;2.30;;;;;;;22.13;89.86;100147.84;105464;1267;62095;-88
2023/07/20 01:46:14;;;;;;;7.50;2.80;;;;;;;22.05;89.69;100147.91;105495;1268;76482;-89
2023/07/20 01:49:03;;;;;;;4.30;2.70;;;;;;;21.93;89.58;100147.80;105384;1268;69525;-88
2023/07/20 01:51:52;;;;;;;2.90;2.10;;;;;;;21.84;90.15;100144.43;105450;1266;72479;-90
2023/07/20 01:54:41;;;;;;;7.70;3.10;;;;;;;21.82;90.31;100141.53;105347;1270;62567;-87
2023/07/20 01:57:30;;;;;;;5.20;3.00;;;;;;;21.77;90.72;100144.19;105428;1268;62011;-89
2023/07/20 02:00:21;;;;;;;3.90;2.50;;;;;;;21.77;90.72;100145.48;105305;1268;75587;-88
2023/07/20 02:03:11;;;;;;;4.50;2.00;;;;;;;21.75;91.19;100141.60;105159;1268;69696;-89
2023/07/20 02:06:00;;;;;;;4.80;2.60;;;;;;;21.72;91.45;100138.36;105425;1267;72670;-89
2023/07/20 02:08:49;;;;;;;4.70;2.30;;;;;;;21.71;91.26;100132.23;105556;1268;62506;-89
2023/07/20 02:11:39;;;;;;;4.10;2.40;;;;;;;21.72;91.32;100126.77;105338;1270;61986;-90
2023/07/20 02:14:28;;;;;;;4.80;2.70;;;;;;;21.68;91.97;100127.46;105400;1268;76717;-89
2023/07/20 02:17:17;;;;;;;3.00;2.50;;;;;;;21.71;92.11;100119.73;105487;1267;70440;-89
2023/07/20 02:20:08;;;;;;;3.70;2.40;;;;;;;21.64;92.89;100118.65;105313;1267;72766;-87
2023/07/20 02:22:57;;;;;;;3.90;2.90;;;;;;;21.68;93.28;100122.39;105333;1267;62286;-87
2023/07/20 02:25:45;;;;;;;3.40;2.60;;;;;;;21.70;93.12;100123.55;105340;1268;62183;-87
2023/07/20 02:28:34;;;;;;;4.10;2.70;;;;;;;21.66;93.54;100124.56;105334;1268;74001;-88
2023/07/20 02:31:22;;;;;;;3.40;2.40;;;;;;;21.70;93.57;100129.75;105239;1267;68886;-90
2023/07/20 02:34:11;;;;;;;5.30;2.60;;;;;;;21.70;93.44;100130.77;105320;1267;72628;-87
2023/07/20 02:37:00;;;;;;;4.50;2.40;;;;;;;21.72;93.49;100132.02;105553;1267;62276;-87
2023/07/20 02:39:48;;;;;;;4.10;2.70;;;;;;;21.86;92.70;100132.24;105323;1270;62090;-87
2023/07/20 02:42:37;;;;;;;4.00;2.70;;;;;;;21.84;93.17;100137.03;105317;1268;76483;-89
2023/07/20 02:45:25;;;;;;;6.70;2.90;;;;;;;21.78;93.75;100136.36;105396;1270;66824;-87
2023/07/20 02:48:14;;;;;;;5.30;3.60;;;;;;;21.83;94.23;100143.61;105522;1267;72455;-87
2023/07/20 02:51:02;;;;;;;4.00;2.90;;;;;;;21.76;95.51;100139.09;105344;1268;63773;-89
2023/07/20 02:53:50;;;;;;;4.80;3.10;;;;;;;21.74;96.46;100143.80;105636;1270;61950;-89
2023/07/20 02:56:39;;;;;;;5.10;3.20;;;;;;;21.82;96.91;100144.88;105498;1268;74911;-90
2023/07/20 02:59:29;;;;;;;4.90;2.90;;;;;;;21.95;97.34;100145.79;105288;1270;68778;-91
2023/07/20 03:02:17;;;;;;;5.10;2.70;;;;;;;22.21;96.28;100144.06;105350;1270;73299;-89
2023/07/20 03:05:07;;;;;;;4.30;2.60;;;;;;;22.27;96.30;100146.98;105381;1270;62072;-89
2023/07/20 03:07:56;;;;;;;7.10;3.20;;;;;;;22.36;96.44;100147.16;105372;1270;62072;-89
2023/07/20 03:10:44;;;;;;;5.50;2.60;;;;;;;22.59;95.20;100151.44;105327;1268;76491;-88
2023/07/20 03:13:33;;;;;;;4.70;2.80;;;;;;;22.71;94.90;100153.65;105486;1268;68350;-89
2023/07/20 03:16:23;;;;;;;4.30;2.90;;;;;;;22.96;95.62;100153.83;105519;1270;72769;-87
2023/07/20 03:19:13;;;;;;;3.20;2.90;;;;;;;23.15;96.77;100147.24;105560;1268;63058;-87
2023/07/20 03:22:02;;;;;;;5.60;2.90;;;;;;;23.30;97.63;100148.13;105717;1271;62002;-88
2023/07/20 03:24:52;;;;;;;5.40;2.90;;;;;;;23.51;98.29;100142.40;105557;1266;74287;-89
2023/07/20 03:27:41;;;;;;;4.20;3.00;;;;;;;23.76;97.96;100140.80;105467;1268;70208;-90
2023/07/20 03:30:30;;;;;;;3.00;2.60;;;;;;;23.98;96.90;100132.29;105282;1269;71493;-90
2023/07/20 03:33:19;;;;;;;5.10;2.80;;;;;;;24.06;97.09;100133.98;105429;1271;62186;-88
2023/07/20 03:36:09;;;;;;;8.20;2.80;;;;;;;24.20;95.74;100132.64;105374;1268;62062;-89
2023/07/20 03:38:58;;;;;;;4.40;2.60;;;;;;;24.24;94.83;100133.96;105190;1266;75507;-89
2023/07/20 03:41:46;;;;;;;2.80;2.30;;;;;;;24.36;93.10;100137.64;105263;1270;67446;-89
2023/07/20 03:44:34;;;;;;;4.90;2.60;;;;;;;24.52;92.24;100140.17;105645;1270;73690;-89
2023/07/20 03:47:24;;;;;;;5.70;2.90;;;;;;;24.69;91.13;100143.31;105372;1268;62071;-89
2023/07/20 03:50:13;;;;;;;3.60;2.60;;;;;;;24.81;91.58;100145.73;105426;1268;62144;-89
2023/07/20 03:53:01;;;;;;;5.80;2.60;;;;;;;24.97;91.47;100144.69;105323;1267;74404;-89
2023/07/20 03:55:51;;;;;;;5.50;3.10;;;;;;;25.18;90.27;100144.11;105311;1270;68678;-88
2023/07/20 03:58:41;;;;;;;3.50;2.70;;;;;;;25.38;88.91;100142.84;105414;1268;62808;-91
2023/07/20 04:01:29;;;;;;;4.60;2.70;;;;;;;25.54;88.11;100145.12;105391;1270;62169;-90
2023/07/20 04:04:17;;;;;;;8.70;4.60;;;;;;;25.63;87.30;100150.46;105302;1270;62127;-89
2023/07/20 04:07:06;;;;;;;5.90;3.30;;;;;;;25.69;87.01;100150.74;105230;1267;68612;-90
2023/07/20 04:09:54;;;;;;;6.50;3.90;;;;;;;25.83;88.47;100147.48;105295;1273;62042;-90
2023/07/20 04:12:44;;;;;;;7.50;4.10;;;;;;;25.96;89.81;100145.02;105231;1271;65234;-88
2023/07/20 04:15:34;;;;;;;5.20;3.10;;;;;;;26.10;90.39;100144.13;105340;1268;62179;-89
2023/07/20 04:18:23;;;;;;;8.30;2.70;;;;;;;26.18;91.48;100143.20;105321;1268;61939;-91
2023/07/20 04:21:12;;;;;;;6.40;3.30;;;;;;;26.28;92.45;100139.48;105516;1269;67933;-90
2023/07/20 04:24:00;;;;;;;6.80;3.50;;;;;;;26.47;93.34;100138.45;105079;1272;68292;-89
2023/07/20 04:26:49;;;;;;;3.70;3.00;;;;;;;26.71;93.82;100136.36;105314;1270;63995;-91
2023/07/20 04:29:38;;;;;;;5.20;3.20;;;;;;;26.92;92.61;100138.73;105218;1268;62178;-89
2023/07/20 04:32:26;;;;;;;5.30;3.20;;;;;;;27.15;91.40;100133.23;105352;1270;61959;-89
2023/07/20 04:35:45;;;;;;;9.10;3.40;;;;;;;27.37;91.17;100137.50;105288;1268;67675;-89
2023/07/20 04:38:36;;;;;;;9.80;3.80;;;;;;;27.68;90.30;100134.27;105282;1268;62102;-90
2023/07/20 04:41:31;;;;;;;10.80;4.00;;;;;;;27.99;89.88;100139.27;105363;1270;65029;-90
2023/07/20 04:44:22;;;;;;;7.40;3.30;;;;;;;28.21;90.05;100137.66;105292;1268;62178;-89
2023/07/20 04:47:10;;;;;;;9.10;3.20;;;;;;;28.47;89.03;100134.92;105577;1265;62210;-89
2023/07/20 04:50:00;;;;;;;5.40;3.00;;;;;;;28.69;87.78;100135.69;105294;1268;67862;-90
2023/07/20 04:52:48;;;;;;;7.10;2.80;;;;;;;28.93;86.94;100139.40;105528;1267;62147;-89
2023/07/20 04:55:39;;;;;;;7.20;3.00;;;;;;;29.16;85.58;100133.77;105387;1267;64087;-89
2023/07/20 04:58:29;;;;;;;6.30;2.40;;;;;;;29.38;85.02;100131.98;105323;1268;61992;-89
2023/07/20 05:01:17;;;;;;;5.40;2.30;;;;;;;29.64;83.38;100133.12;105479;1267;62056;-89
2023/07/20 05:04:06;;;;;;;11.40;3.40;;;;;;;29.94;81.51;100130.06;105350;1267;65623;-89
2023/07/20 05:06:56;;;;;;;3.50;2.70;;;;;;;30.22;78.86;100131.20;105535;1270;62303;-90
2023/07/20 05:09:46;;;;;;;4.70;2.80;;;;;;;30.42;76.98;100128.79;105532;1270;64759;-88
2023/07/20 05:12:34;;;;;;;4.90;2.80;;;;;;;30.63;75.30;100128.02;105278;1268;62178;-89
2023/07/20 05:15:22;;;;;;;6.40;3.20;;;;;;;30.81;73.27;100124.87;105336;1268;62487;-90
2023/07/20 05:18:12;;;;;;;9.40;2.40;;;;;;;31.03;70.32;100123.73;105401;1268;67811;-89
2023/07/20 05:21:02;;;;;;;3.10;2.00;;;;;;;31.28;67.31;100125.02;105860;1268;62186;-88
2023/07/20 05:23:52;;;;;;;3.60;2.20;;;;;;;31.53;63.40;100120.56;105344;1268;64093;-88
2023/07/20 05:26:43;;;;;;;6.90;1.90;;;;;;;31.65;59.06;100119.38;105313;1265;62093;-87
2023/07/20 05:29:32;;;;;;;6.60;1.90;;;;;;;31.68;55.10;100123.37;105320;1266;62025;-87
2023/07/20 05:32:21;;;;;;;5.10;1.90;;;;;;;31.77;55.04;100124.33;105308;1268;66886;-86
2023/07/20 05:35:11;;;;;;;2.80;1.50;;;;;;;31.87;54.63;100121.46;105704;1268;62160;-87
2023/07/20 05:38:00;;;;;;;6.20;1.80;;;;;;;31.99;53.88;100117.23;105419;1268;64106;-88
2023/07/20 05:40:48;;;;;;;2.30;1.40;;;;;;;32.16;53.43;100114.13;105555;1268;61963;-88
2023/07/20 05:43:36;;;;;;;4.30;1.70;;;;;;;32.39;52.06;100110.73;105617;1269;61981;-88
2023/07/20 05:46:32;;;;;;;3.20;1.40;;;;;;;32.60;51.44;100102.14;105528;1268;68011;-87
2023/07/20 05:49:40;;;;;;;7.10;2.60;;;;;;;32.71;49.95;100095.17;105599;1268;62215;-88
2023/07/20 05:52:29;;;;;;;3.20;1.90;;;;;;;32.78;49.04;100093.14;105588;1268;65091;-85
2023/07/20 05:55:18;;;;;;;2.70;1.40;;;;;;;32.83;48.22;100092.79;105514;1265;62028;-86
2023/07/20 05:58:06;;;;;;;4.70;1.50;;;;;;;32.92;48.76;100093.13;105529;1266;62183;-86
2023/07/20 06:01:00;;;;;;;6.60;1.50;;;;;;;33.04;48.25;100095.27;105599;1269;68190;-87
2023/07/20 06:03:48;;;;;;;3.60;1.60;;;;;;;33.21;46.64;100092.74;105767;1270;62019;-86
2023/07/20 06:06:37;;;;;;;5.90;1.40;;;;;;;33.27;45.84;100089.52;105657;1269;64806;-90
2023/07/20 06:09:58;;;;;;;4.40;1.60;;;;;;;33.45;44.40;100091.56;105600;1268;62496;-88
2023/07/20 06:12:57;;;;;;;2.90;1.50;;;;;;;33.58;43.23;100091.21;105476;1267;61982;-90
2023/07/20 06:16:01;;;;;;;2.40;1.40;;;;;;;33.64;42.63;100090.75;105420;1268;67961;-90
2023/07/20 06:18:58;;;;;;;3.00;1.70;;;;;;;33.78;42.54;100089.55;105553;1270;62006;-89
2023/07/20 06:22:02;;;;;;;5.10;2.10;;;;;;;33.81;42.63;100089.77;105520;1267;65217;-89
2023/07/20 06:24:51;;;;;;;2.70;1.60;;;;;;;33.87;42.49;100086.70;105444;1267;61978;-89
2023/07/20 06:27:49;;;;;;;3.70;1.80;;;;;;;34.01;41.37;100083.95;105432;1272;61998;-87
2023/07/20 06:31:08;;;;;;;4.10;1.80;;;;;;;34.13;41.33;100084.09;105527;1267;66909;-88
2023/07/20 06:33:57;;;;;;;3.30;1.60;;;;;;;34.35;41.01;100090.17;105412;1265;69685;-88
2023/07/20 06:36:48;;;;;;;4.70;1.50;;;;;;;34.41;40.45;100091.30;105638;1266;65134;-87
2023/07/20 06:39:36;;;;;;;3.90;1.50;;;;;;;34.54;39.81;100093.89;105657;1271;62179;-88
2023/07/20 06:42:28;;;;;;;2.70;1.50;;;;;;;34.64;40.26;100094.01;105614;1270;60101;-88
2023/07/20 06:45:36;;;;;;;3.90;1.30;;;;;;;34.69;40.11;100093.34;105812;1268;67640;-89
2023/07/20 06:48:26;;;;;;;2.80;1.70;;;;;;;34.71;39.41;100091.38;105494;1267;62094;-87
2023/07/20 06:51:17;;;;;;;2.90;1.40;;;;;;;34.71;39.81;100085.45;105732;1265;66321;-87
2023/07/20 14:44:59;;;;;;;6.40;4.10;;;;;;;38.41;32.62;99781.39;105625;1285;65613;-93
2023/07/20 14:53:05;;;;;;;4.70;3.50;;;;;;;37.39;35.51;99782.06;104160;1293;64577;-92
2023/07/20 15:01:46;;;;;;;6.10;4.00;;;;;;;36.65;37.60;99774.80;104632;1288;62146;-94
2023/07/20 15:09:31;;;;;;;5.50;3.80;;;;;;;36.05;40.02;99772.70;107198;1273;67748;31
2023/07/20 15:21:07;;;;;;;9.10;4.10;;;;;;;35.99;41.54;99763.13;105070;1280;62115;31
2023/07/20 15:31:27;;;;;;;6.10;3.70;;;;;;;35.92;42.26;99746.77;90456;1281;64945;-94
2023/07/20 15:34:54;;;;;;;8.00;4.30;;;;;;;35.84;44.02;99742.78;104484;1285;61995;-90
2023/07/20 15:37:44;;;;;;;6.00;3.60;;;;;;;35.65;45.95;99736.69;103892;1283;62199;-91
2023/07/20 15:40:33;;;;;;;10.10;4.30;;;;;;;35.44;46.64;99733.05;103783;1285;67734;-92
2023/07/20 15:43:21;;;;;;;5.50;3.30;;;;;;;35.34;48.35;99733.45;103751;1286;62169;-93
2023/07/20 15:46:39;;;;;;;7.80;4.10;;;;;;;35.18;49.65;99739.39;103802;1288;64789;-92
2023/07/20 15:49:30;;;;;;;8.00;4.30;;;;;;;35.15;50.48;99741.64;103902;1285;62049;-94
2023/07/20 15:52:23;;;;;;;6.30;4.30;;;;;;;35.12;50.74;99738.09;103781;1288;62022;-89
2023/07/20 15:55:12;;;;;;;6.10;3.90;;;;;;;35.11;51.44;99736.30;103679;1283;65520;-90
2023/07/20 15:58:02;;;;;;;5.40;3.60;;;;;;;35.04;52.75;99726.83;104211;1284;62269;-88
2023/07/20 16:00:56;;;;;;;5.00;4.00;;;;;;;35.00;53.74;99722.39;103641;1288;62700;-90
2023/07/20 16:03:45;;;;;;;4.80;3.80;;;;;;;35.04;53.16;99722.85;103473;1289;62242;-91
2023/07/20 16:06:35;;;;;;;6.60;4.20;;;;;;;35.01;53.46;99723.33;103766;1291;62228;-89
2023/07/20 16:09:23;;;;;;;6.20;3.90;;;;;;;34.94;53.98;99720.75;103851;1288;66107;-90
2023/07/20 16:12:12;;;;;;;9.30;4.40;;;;;;;34.87;53.91;99729.29;103883;1285;60987;-89
2023/07/20 16:15:01;;;;;;;5.50;4.10;;;;;;;34.73;54.92;99732.67;103872;1288;65388;-91
2023/07/20 16:17:52;;;;;;;5.40;3.90;;;;;;;34.64;55.97;99728.70;103651;1282;62127;-91
2023/07/20 16:20:41;;;;;;;6.30;3.50;;;;;;;34.52;57.56;99733.55;103642;1291;62111;-92
2023/07/20 16:23:30;;;;;;;6.90;3.90;;;;;;;34.38;58.84;99736.74;103836;1282;156642;-91
2023/07/20 16:26:18;;;;;;;1.80;1.70;;;;;;;34.26;59.81;99741.55;103993;1285;62140;-90
2023/07/20 16:29:14;;;;;;;4.30;3.80;;;;;;;34.07;61.36;99745.19;103845;1285;62940;-91
2023/07/20 16:32:08;;;;;;;6.40;4.30;;;;;;;33.99;62.22;99742.30;103553;1289;62128;-89
2023/07/20 16:35:00;;;;;;;4.70;3.70;;;;;;;34.07;61.99;99731.98;103522;1289;62080;-89
2023/07/20 16:38:01;;;;;;;5.80;3.40;;;;;;;34.01;62.51;99726.85;103580;1286;66865;-91
2023/07/20 16:40:57;;;;;;;7.50;3.90;;;;;;;33.97;62.90;99721.49;103750;1285;62133;-90
2023/07/20 16:43:48;;;;;;;8.10;4.20;;;;;;;33.86;63.30;99726.05;103513;1285;63876;-91
2023/07/20 16:46:40;;;;;;;7.20;4.30;;;;;;;33.72;64.27;99728.33;103471;1289;62037;-91
2023/07/20 16:49:34;;;;;;;10.80;3.70;;;;;;;33.70;64.64;99728.56;103442;1285;62096;-92
2023/07/20 16:52:28;;;;;;;5.10;4.20;;;;;;;33.65;64.81;99722.09;103874;1288;67057;-89
2023/07/20 16:55:16;;;;;;;6.20;4.00;;;;;;;33.51;66.35;99727.07;103608;1288;62170;-93
2023/07/20 16:58:07;;;;;;;9.70;4.70;;;;;;;33.55;66.86;99738.11;103524;1286;65205;-89
2023/07/20 17:01:04;;;;;;;6.10;4.00;;;;;;;33.64;66.57;99749.40;103821;1289;62373;-89
2023/07/20 17:03:56;;;;;;;7.20;4.00;;;;;;;33.62;66.87;99752.70;103673;1285;62088;-93
2023/07/20 17:06:48;;;;;;;5.70;4.20;;;;;;;33.55;67.34;99746.91;103676;1287;67205;-92
2023/07/20 17:09:37;;;;;;;7.50;4.30;;;;;;;33.49;67.96;99743.15;103668;1292;62043;-90
2023/07/20 17:12:25;;;;;;;6.60;4.30;;;;;;;33.39;68.31;99740.14;103751;1289;65190;-92
2023/07/20 17:15:15;;;;;;;6.00;4.20;;;;;;;33.35;69.02;99741.63;103673;1282;62238;-89
2023/07/20 17:18:03;;;;;;;9.00;4.10;;;;;;;33.50;68.24;99736.06;103798;1288;61297;-89
2023/07/20 17:21:10;;;;;;;6.60;4.00;;;;;;;33.39;69.03;99732.37;103496;1289;66579;-90
2023/07/20 17:24:01;;;;;;;8.40;4.00;;;;;;;33.38;69.50;99735.29;103511;1285;62143;-92
2023/07/20 17:26:51;;;;;;;5.70;4.00;;;;;;;33.37;69.86;99741.98;103639;1286;63966;-90
2023/07/20 17:30:06;;;;;;;10.40;4.20;;;;;;;33.32;70.49;99746.51;104063;1288;62015;-90
2023/07/20 17:32:57;;;;;;;8.80;4.30;;;;;;;33.29;70.70;99748.61;103839;1282;62004;-89
2023/07/20 17:35:58;;;;;;;5.60;4.10;;;;;;;33.26;70.98;99742.48;104027;1288;67915;-91
2023/07/20 17:38:53;;;;;;;7.60;4.00;;;;;;;33.31;70.64;99738.34;103738;1283;62707;-91
2023/07/20 17:41:44;;;;;;;8.60;4.50;;;;;;;33.30;70.69;99736.45;103720;1289;62790;-92
2023/07/20 17:44:40;;;;;;;7.90;4.00;;;;;;;33.14;71.57;99738.41;103817;1285;62146;-90
2023/07/20 17:47:29;;;;;;;6.50;4.20;;;;;;;33.05;72.25;99743.69;104131;1284;62215;-90
2023/07/20 17:50:17;;;;;;;14.10;5.20;;;;;;;33.00;72.79;99739.52;103767;1288;67712;-92
2023/07/20 17:53:06;;;;;;;11.90;4.30;;;;;;;33.02;72.86;99733.28;104741;1285;89508;-90
2023/07/20 17:55:54;;;;;;;10.70;4.60;;;;;;;32.93;73.64;99741.37;103903;1285;62916;-89
2023/07/20 17:58:43;;;;;;;21.60;6.80;;;;;;;32.93;73.80;99758.08;103688;1284;62243;-89
2023/07/20 18:01:32;;;;;;;6.40;4.30;;;;;;;32.92;73.81;99762.33;103812;1287;63182;-89
2023/07/20 18:04:20;;;;;;;6.80;4.70;;;;;;;32.89;72.72;99764.51;103617;1288;68072;-90
2023/07/20 18:07:08;;;;;;;6.60;4.20;;;;;;;32.79;71.37;99766.41;103585;1286;62095;-88
2023/07/20 18:09:57;;;;;;;10.80;4.80;;;;;;;32.70;70.34;99772.44;103752;1285;65231;-89
2023/07/20 18:12:46;;;;;;;7.40;4.30;;;;;;;32.68;71.27;99777.48;103763;1286;62586;-89
2023/07/20 18:15:35;;;;;;;4.70;3.90;;;;;;;32.70;74.27;99784.15;103701;1284;62051;-89
2023/07/20 18:18:24;;;;;;;9.50;4.60;;;;;;;32.69;77.58;99792.74;103649;1291;66900;-88
2023/07/20 18:21:12;;;;;;;9.80;5.40;;;;;;;32.73;79.72;99820.98;103771;1288;62147;-87
2023/07/20 18:24:01;;;;;;;3.70;3.00;;;;;;;32.55;79.73;99873.16;104166;1286;64141;-88
2023/07/20 18:26:52;;;;;;;6.50;3.20;;;;;;;31.48;80.20;99867.27;103903;1286;62197;-87
2023/07/20 18:29:40;;;;;;;4.90;3.10;;;;;;;30.07;88.67;99894.70;103822;1285;62092;-86
2023/07/20 18:32:28;;;;;;;5.20;3.50;;;;;;;28.98;96.81;99912.99;103782;1286;66896;-85
2023/07/20 18:35:17;;;;;;;6.40;2.90;;;;;;;28.39;100.00;99910.80;103630;1289;62097;-84
2023/07/20 18:38:05;;;;;;;5.90;3.10;;;;;;;27.95;100.00;99908.07;103785;1284;65336;-84
2023/07/20 18:40:56;;;;;;;4.60;3.10;;;;;;;27.75;100.00;99910.73;103690;1289;62123;-86
2023/07/20 18:43:46;;;;;;;4.60;2.80;;;;;;;27.51;100.00;99911.65;103857;1286;62131;-85
2023/07/20 18:46:34;;;;;;;4.80;3.00;;;;;;;27.39;100.00;99913.48;103657;1285;68248;-85
2023/07/20 18:49:25;;;;;;;5.30;3.20;;;;;;;27.36;100.00;99926.70;103736;1285;62204;-85
2023/07/20 18:52:14;;;;;;;7.40;3.20;;;;;;;27.32;100.00;99932.89;103598;1285;64866;-84
2023/07/20 18:55:02;;;;;;;7.20;3.50;;;;;;;27.36;100.00;99919.65;103752;1286;62213;-84
2023/07/20 18:57:54;;;;;;;5.30;3.90;;;;;;;27.42;100.00;99909.30;103778;1288;62032;-85
2023/07/20 19:00:42;;;;;;;8.60;4.00;;;;;;;27.57;100.00;99893.98;103666;1284;67496;-85
2023/07/20 19:03:31;;;;;;;8.30;4.10;;;;;;;27.65;100.00;99871.26;103542;1291;62283;-85
2023/07/20 19:06:19;;;;;;;5.00;3.70;;;;;;;27.77;100.00;99846.17;103559;1288;65045;-85
2023/07/20 19:09:08;;;;;;;9.00;4.40;;;;;;;27.77;100.00;99814.17;103676;1286;62630;-85
2023/07/20 19:11:57;;;;;;;7.30;4.80;;;;;;;27.81;100.00;99790.65;103725;1284;61991;-83
2023/07/20 19:14:48;;;;;;;7.80;5.00;;;;;;;27.66;100.00;99795.23;103609;1287;67747;-87
2023/07/20 19:17:36;;;;;;;6.80;4.70;;;;;;;27.55;100.00;99812.46;103663;1285;62179;-85
2023/07/20 19:20:24;;;;;;;11.10;5.20;;;;;;;27.51;100.00;99833.91;103591;1288;65193;-87
2023/07/20 19:23:13;;;;;;;7.40;5.80;;;;;;;27.46;100.00;99847.80;103584;1285;61981;-87
2023/07/20 19:26:10;;;;;;;14.00;9.80;;;;;;;27.50;100.00;99838.64;103496;1286;62300;-85
2023/07/20 19:28:58;;;;;;;22.50;14.60;;;;;;;27.53;100.00;99830.85;103645;1285;66976;-86
2023/07/20 19:31:46;;;;;;;19.50;14.60;;;;;;;27.43;100.00;99836.11;103646;1288;62167;-87
2023/07/20 19:34:36;;;;;;;20.70;16.10;;;;;;;27.45;100.00;99831.52;103928;1288;65222;-87
2023/07/20 19:37:24;;;;;;;21.10;16.60;;;;;;;27.58;100.00;99830.66;103625;1286;62227;-85
2023/07/20 19:40:12;;;;;;;19.40;15.70;;;;;;;27.65;100.00;99832.55;103542;1285;62192;-84
2023/07/20 19:43:03;;;;;;;25.40;17.10;;;;;;;27.60;100.00;99841.95;103447;1289;67572;-84
2023/07/20 19:45:51;;;;;;;23.70;17.40;;;;;;;27.58;100.00;99845.32;103607;1285;62229;-84
2023/07/20 19:48:39;;;;;;;22.10;17.20;;;;;;;27.59;100.00;99847.73;103592;1286;64835;-84
2023/07/20 19:51:28;;;;;;;24.80;18.30;;;;;;;27.60;100.00;99847.88;103717;1285;62155;-86
2023/07/20 19:54:17;;;;;;;20.70;18.30;;;;;;;27.71;100.00;99850.45;103676;1284;62134;-85
2023/07/20 19:57:07;;;;;;;22.30;18.20;;;;;;;27.61;100.00;99851.00;103649;1288;67060;-85
2023/07/20 20:00:17;;;;;;;21.00;17.80;;;;;;;27.52;100.00;99853.62;103578;1288;67361;-85
2023/07/20 20:03:07;;;;;;;24.70;18.70;;;;;;;27.66;100.00;99854.26;103876;1286;64919;-86
2023/07/20 20:05:58;;;;;;;24.30;17.60;;;;;;;27.64;100.00;99860.29;103553;1284;62213;-84
2023/07/20 20:08:51;;;;;;;24.40;18.40;;;;;;;27.40;100.00;99871.15;103637;1282;62184;-86
2023/07/20 20:11:39;;;;;;;26.60;20.50;;;;;;;27.32;100.00;99878.56;104066;1288;66883;-84
2023/07/20 20:14:29;;;;;;;26.10;18.80;;;;;;;27.31;100.00;99878.09;103632;1286;62651;-85
2023/07/20 20:17:17;;;;;;;21.30;17.60;;;;;;;27.25;100.00;99875.70;103714;1288;64186;-84
2023/07/20 20:20:11;;;;;;;23.40;18.30;;;;;;;27.27;100.00;99873.94;103856;1289;62281;-84
2023/07/20 20:22:59;;;;;;;24.00;18.90;;;;;;;27.14;100.00;99878.27;103772;1286;62097;-84
2023/07/20 20:25:48;;;;;;;20.90;18.60;;;;;;;26.86;100.00;99882.69;103735;1285;67816;-84
2023/07/20 20:28:36;;;;;;;22.70;18.80;;;;;;;26.86;100.00;99888.30;103871;1283;62197;-84
2023/07/20 20:31:25;;;;;;;22.50;18.80;;;;;;;26.84;100.00;99883.73;103701;1288;63904;-84
2023/07/20 20:34:13;;;;;;;24.00;17.70;;;;;;;26.80;100.00;99883.11;103489;1288;62130;-85
2023/07/20 20:37:01;;;;;;;22.90;18.50;;;;;;;26.83;100.00;99885.27;103888;1288;62121;-86
2023/07/20 20:39:50;;;;;;;26.70;19.20;;;;;;;26.85;100.00;99884.94;103628;1285;68111;-85
2023/07/20 20:42:40;;;;;;;21.10;18.10;;;;;;;26.83;100.00;99886.47;103601;1286;62258;-84
2023/07/20 20:45:28;;;;;;;21.50;19.10;;;;;;;26.85;100.00;99885.10;103674;1284;65041;-88
2023/07/20 20:48:17;;;;;;;19.80;17.70;;;;;;;26.89;100.00;99888.94;104001;1288;62179;-87
2023/07/20 20:51:05;;;;;;;20.90;17.30;;;;;;;26.83;100.00;99890.31;103737;1285;62058;-87
2023/07/20 20:53:53;;;;;;;21.60;16.50;;;;;;;26.80;100.00;99891.11;103818;1284;67934;-87
2023/07/20 20:56:42;;;;;;;20.20;18.10;;;;;;;26.75;100.00;99888.08;103806;1288;62159;-86
2023/07/20 20:59:30;;;;;;;22.80;16.30;;;;;;;26.71;100.00;99894.73;103800;1288;64129;-85
2023/07/20 21:02:18;;;;;;;19.20;16.50;;;;;;;26.68;100.00;99900.41;103781;1288;62906;-87
2023/07/20 21:05:08;;;;;;;19.40;16.90;;;;;;;26.63;100.00;99901.14;103676;1286;62162;-87
2023/07/20 21:07:56;;;;;;;18.70;15.30;;;;;;;26.63;100.00;99901.14;103742;1288;67586;-88
2023/07/20 21:10:46;;;;;;;21.60;15.80;;;;;;;26.61;100.00;99896.18;103697;1288;62086;-88
2023/07/20 21:13:35;;;;;;;18.70;15.30;;;;;;;26.57;100.00;99893.31;103663;1288;64909;-88
2023/07/20 21:16:23;;;;;;;23.50;18.00;;;;;;;26.56;100.00;99894.42;103665;1288;62143;-86
2023/07/20 21:19:14;;;;;;;21.10;16.70;;;;;;;26.57;100.00;99901.47;103740;1288;62190;-86
2023/07/20 21:22:02;;;;;;;21.70;17.10;;;;;;;26.49;100.00;99899.52;103600;1283;66779;-85
2023/07/20 21:24:51;;;;;;;19.90;16.40;;;;;;;26.41;100.00;99899.94;103539;1285;62245;-88
2023/07/20 21:27:42;;;;;;;17.20;14.30;;;;;;;26.42;100.00;99895.28;103738;1285;65049;-86